sensor_id;sensor_type;location;lat;lon;timestamp;noise_LAeq;noise_LA_min;noise_LA_max;noise_LA01;noise_LA95
72466;Laerm;60471;52.150;4.508;2023-05-10T00:01:35;61.40;39.90;75.44;;
72466;Laerm;60471;52.150;4.508;2023-05-10T00:04:01;64.38;39.03;84.04;;
72466;Laerm;60471;52.150;4.508;2023-05-10T00:06:27;64.59;42.60;84.33;;
72466;Laerm;60471;52.150;4.508;2023-05-10T00:08:53;64.65;40.62;83.52;;
72466;Laerm;60471;52.150;4.508;2023-05-10T00:11:20;64.75;40.81;85.80;;
72466;Laerm;60471;52.150;4.508;2023-05-10T00:13:46;61.19;40.50;72.83;;
72466;Laerm;60471;52.150;4.508;2023-05-10T00:16:13;61.00;39.98;73.49;;
72466;Laerm;60471;52.150;4.508;2023-05-10T00:18:40;64.66;41.25;84.13;;
72466;Laerm;60471;52.150;4.508;2023-05-10T00:21:06;61.17;40.29;74.01;;
72466;Laerm;60471;52.150;4.508;2023-05-10T00:23:32;61.41;40.00;75.02;;
72466;Laerm;60471;52.150;4.508;2023-05-10T00:25:58;61.05;39.64;73.64;;
72466;Laerm;60471;52.150;4.508;2023-05-10T00:28:24;60.48;39.91;74.19;;
72466;Laerm;60471;52.150;4.508;2023-05-10T00:30:52;61.32;40.19;74.83;;
72466;Laerm;60471;52.150;4.508;2023-05-10T00:33:19;60.22;41.26;73.16;;
72466;Laerm;60471;52.150;4.508;2023-05-10T00:35:45;61.22;40.48;73.58;;
72466;Laerm;60471;52.150;4.508;2023-05-10T00:38:11;64.58;42.55;83.83;;
72466;Laerm;60471;52.150;4.508;2023-05-10T00:40:37;64.46;41.40;83.44;;
72466;Laerm;60471;52.150;4.508;2023-05-10T00:43:04;61.41;41.98;73.88;;
72466;Laerm;60471;52.150;4.508;2023-05-10T00:45:32;64.19;39.21;85.39;;
72466;Laerm;60471;52.150;4.508;2023-05-10T00:48:02;64.32;39.96;84.59;;
72466;Laerm;60471;52.150;4.508;2023-05-10T00:50:32;61.57;40.66;75.45;;
72466;Laerm;60471;52.150;4.508;2023-05-10T00:52:59;60.33;40.53;75.18;;
72466;Laerm;60471;52.150;4.508;2023-05-10T00:55:27;60.52;40.15;73.88;;
72466;Laerm;60471;52.150;4.508;2023-05-10T00:57:53;61.17;39.28;73.87;;
72466;Laerm;60471;52.150;4.508;2023-05-10T01:00:20;64.13;39.85;84.22;;
72466;Laerm;60471;52.150;4.508;2023-05-10T01:02:46;63.07;38.26;82.62;;
72466;Laerm;60471;52.150;4.508;2023-05-10T01:05:13;64.10;40.27;83.33;;
72466;Laerm;60471;52.150;4.508;2023-05-10T01:07:39;61.67;40.35;75.11;;
72466;Laerm;60471;52.150;4.508;2023-05-10T01:10:07;60.13;38.57;72.83;;
72466;Laerm;60471;52.150;4.508;2023-05-10T01:12:38;60.94;40.68;75.60;;
72466;Laerm;60471;52.150;4.508;2023-05-10T01:15:08;64.22;40.28;84.40;;
72466;Laerm;60471;52.150;4.508;2023-05-10T01:17:39;62.66;38.95;83.32;;
72466;Laerm;60471;52.150;4.508;2023-05-10T01:20:09;64.55;39.24;83.98;;
72466;Laerm;60471;52.150;4.508;2023-05-10T01:38:50;63.25;39.27;84.00;;
72466;Laerm;60471;52.150;4.508;2023-05-10T01:41:41;63.73;39.78;84.37;;
72466;Laerm;60471;52.150;4.508;2023-05-10T01:44:20;61.44;39.41;75.18;;
72466;Laerm;60471;52.150;4.508;2023-05-10T01:46:59;62.63;39.82;85.37;;
72466;Laerm;60471;52.150;4.508;2023-05-10T01:49:32;61.36;41.22;75.41;;
72466;Laerm;60471;52.150;4.508;2023-05-10T01:52:10;60.49;39.45;74.01;;
72466;Laerm;60471;52.150;4.508;2023-05-10T01:54:58;63.33;39.95;83.81;;
72466;Laerm;60471;52.150;4.508;2023-05-10T01:57:32;60.76;39.70;74.31;;
72466;Laerm;60471;52.150;4.508;2023-05-10T02:00:02;60.40;40.06;74.15;;
72466;Laerm;60471;52.150;4.508;2023-05-10T02:02:33;60.46;40.56;75.09;;
72466;Laerm;60471;52.150;4.508;2023-05-10T02:05:04;61.22;39.79;81.75;;
72466;Laerm;60471;52.150;4.508;2023-05-10T02:07:34;59.33;41.47;75.24;;
72466;Laerm;60471;52.150;4.508;2023-05-10T02:10:04;60.89;40.90;83.44;;
72466;Laerm;60471;52.150;4.508;2023-05-10T02:12:35;60.53;39.26;82.91;;
72466;Laerm;60471;52.150;4.508;2023-05-10T02:15:05;59.98;41.14;74.25;;
72466;Laerm;60471;52.150;4.508;2023-05-10T02:17:35;60.21;41.03;74.90;;
72466;Laerm;60471;52.150;4.508;2023-05-10T02:20:06;60.13;40.93;74.72;;
72466;Laerm;60471;52.150;4.508;2023-05-10T02:22:39;60.56;41.61;82.33;;
72466;Laerm;60471;52.150;4.508;2023-05-10T02:25:08;59.54;42.02;73.81;;
72466;Laerm;60471;52.150;4.508;2023-05-10T02:27:37;61.07;41.55;74.22;;
72466;Laerm;60471;52.150;4.508;2023-05-10T02:30:05;59.34;39.54;73.99;;
72466;Laerm;60471;52.150;4.508;2023-05-10T02:32:34;59.41;40.03;75.52;;
72466;Laerm;60471;52.150;4.508;2023-05-10T02:35:03;61.07;40.01;81.99;;
72466;Laerm;60471;52.150;4.508;2023-05-10T02:37:30;59.40;39.61;73.42;;
72466;Laerm;60471;52.150;4.508;2023-05-10T02:39:58;59.00;39.81;73.70;;
72466;Laerm;60471;52.150;4.508;2023-05-10T02:42:29;59.15;40.49;74.18;;
72466;Laerm;60471;52.150;4.508;2023-05-10T02:45:01;59.51;40.77;82.09;;
72466;Laerm;60471;52.150;4.508;2023-05-10T02:47:29;61.60;40.66;83.04;;
72466;Laerm;60471;52.150;4.508;2023-05-10T02:49:55;60.12;40.75;74.27;;
72466;Laerm;60471;52.150;4.508;2023-05-10T02:52:29;59.05;41.27;74.06;;
72466;Laerm;60471;52.150;4.508;2023-05-10T02:55:01;60.62;41.44;74.90;;
72466;Laerm;60471;52.150;4.508;2023-05-10T02:57:33;61.47;40.40;82.39;;
72466;Laerm;60471;52.150;4.508;2023-05-10T03:00:01;62.47;40.83;82.69;;
72466;Laerm;60471;52.150;4.508;2023-05-10T03:02:30;59.58;39.84;74.31;;
72466;Laerm;60471;52.150;4.508;2023-05-10T03:04:56;62.50;40.13;83.07;;
72466;Laerm;60471;52.150;4.508;2023-05-10T03:07:23;59.80;40.72;75.06;;
72466;Laerm;60471;52.150;4.508;2023-05-10T03:09:49;59.03;40.13;73.99;;
72466;Laerm;60471;52.150;4.508;2023-05-10T03:13:01;58.53;40.49;72.81;;
72466;Laerm;60471;52.150;4.508;2023-05-10T03:16:15;59.83;41.26;75.25;;
72466;Laerm;60471;52.150;4.508;2023-05-10T03:18:54;60.26;42.24;75.84;;
72466;Laerm;60471;52.150;4.508;2023-05-10T03:21:28;60.46;41.23;74.16;;
72466;Laerm;60471;52.150;4.508;2023-05-10T03:24:05;62.97;42.30;83.09;;
72466;Laerm;60471;52.150;4.508;2023-05-10T03:26:34;59.69;42.22;72.59;;
72466;Laerm;60471;52.150;4.508;2023-05-10T03:29:01;60.79;42.29;75.44;;
72466;Laerm;60471;52.150;4.508;2023-05-10T03:31:28;59.02;42.28;73.14;;
72466;Laerm;60471;52.150;4.508;2023-05-10T03:33:55;59.27;40.27;72.27;;
72466;Laerm;60471;52.150;4.508;2023-05-10T03:36:21;59.71;42.28;74.70;;
72466;Laerm;60471;52.150;4.508;2023-05-10T03:38:47;59.78;40.84;75.40;;
72466;Laerm;60471;52.150;4.508;2023-05-10T03:41:13;60.03;42.77;73.74;;
72466;Laerm;60471;52.150;4.508;2023-05-10T03:43:40;59.77;41.56;73.75;;
72466;Laerm;60471;52.150;4.508;2023-05-10T03:46:07;59.26;41.22;73.28;;
72466;Laerm;60471;52.150;4.508;2023-05-10T03:48:33;60.07;41.85;75.01;;
72466;Laerm;60471;52.150;4.508;2023-05-10T03:50:59;59.79;42.84;74.43;;
72466;Laerm;60471;52.150;4.508;2023-05-10T03:53:26;60.88;42.49;82.78;;
72466;Laerm;60471;52.150;4.508;2023-05-10T03:55:52;60.24;41.24;74.27;;
72466;Laerm;60471;52.150;4.508;2023-05-10T03:58:19;62.16;41.51;82.91;;
72466;Laerm;60471;52.150;4.508;2023-05-10T04:00:45;58.65;41.56;74.30;;
72466;Laerm;60471;52.150;4.508;2023-05-10T04:03:12;57.80;42.28;74.16;;
72466;Laerm;60471;52.150;4.508;2023-05-10T04:05:39;59.14;41.90;72.11;;
72466;Laerm;60471;52.150;4.508;2023-05-10T04:08:06;59.63;41.52;73.62;;
72466;Laerm;60471;52.150;4.508;2023-05-10T04:10:32;61.07;42.22;82.30;;
72466;Laerm;60471;52.150;4.508;2023-05-10T04:12:58;59.66;42.27;74.01;;
72466;Laerm;60471;52.150;4.508;2023-05-10T04:15:24;61.66;43.69;81.70;;
72466;Laerm;60471;52.150;4.508;2023-05-10T04:17:51;60.11;44.29;73.40;;
72466;Laerm;60471;52.150;4.508;2023-05-10T04:20:17;59.31;43.46;73.64;;
72466;Laerm;60471;52.150;4.508;2023-05-10T04:22:43;60.21;46.20;74.32;;
72466;Laerm;60471;52.150;4.508;2023-05-10T04:25:10;62.09;44.58;82.93;;
72466;Laerm;60471;52.150;4.508;2023-05-10T04:27:36;60.32;43.77;74.60;;
72466;Laerm;60471;52.150;4.508;2023-05-10T04:30:03;63.60;43.49;84.62;;
72466;Laerm;60471;52.150;4.508;2023-05-10T04:32:29;61.24;47.05;73.63;;
72466;Laerm;60471;52.150;4.508;2023-05-10T04:34:56;61.29;45.13;75.62;;
72466;Laerm;60471;52.150;4.508;2023-05-10T04:37:22;59.06;44.76;73.32;;
72466;Laerm;60471;52.150;4.508;2023-05-10T04:39:48;60.90;46.92;73.73;;
72466;Laerm;60471;52.150;4.508;2023-05-10T04:42:15;60.92;44.58;74.18;;
72466;Laerm;60471;52.150;4.508;2023-05-10T04:44:41;64.32;45.54;84.87;;
72466;Laerm;60471;52.150;4.508;2023-05-10T04:47:07;61.41;45.67;82.26;;
72466;Laerm;60471;52.150;4.508;2023-05-10T04:49:33;62.53;44.70;82.91;;
72466;Laerm;60471;52.150;4.508;2023-05-10T04:52:00;63.40;44.95;84.63;;
72466;Laerm;60471;52.150;4.508;2023-05-10T04:54:26;60.59;43.94;75.08;;
72466;Laerm;60471;52.150;4.508;2023-05-10T04:56:52;61.65;49.29;74.05;;
72466;Laerm;60471;52.150;4.508;2023-05-10T04:59:18;61.38;46.26;74.79;;
72466;Laerm;60471;52.150;4.508;2023-05-10T05:01:44;59.67;46.34;74.76;;
72466;Laerm;60471;52.150;4.508;2023-05-10T05:04:11;60.48;44.94;75.73;;
72466;Laerm;60471;52.150;4.508;2023-05-10T05:06:37;60.52;46.48;73.64;;
72466;Laerm;60471;52.150;4.508;2023-05-10T05:09:03;61.46;47.23;75.23;;
72466;Laerm;60471;52.150;4.508;2023-05-10T05:11:29;61.42;47.24;74.87;;
72466;Laerm;60471;52.150;4.508;2023-05-10T05:13:56;62.53;46.94;83.42;;
72466;Laerm;60471;52.150;4.508;2023-05-10T05:16:22;63.73;48.58;83.39;;
72466;Laerm;60471;52.150;4.508;2023-05-10T05:18:48;62.90;46.79;82.57;;
72466;Laerm;60471;52.150;4.508;2023-05-10T05:21:16;61.22;46.63;75.40;;
72466;Laerm;60471;52.150;4.508;2023-05-10T05:23:43;61.48;45.80;74.70;;
72466;Laerm;60471;52.150;4.508;2023-05-10T05:26:09;61.10;44.99;74.47;;
72466;Laerm;60471;52.150;4.508;2023-05-10T05:28:35;62.89;46.56;81.49;;
72466;Laerm;60471;52.150;4.508;2023-05-10T05:31:04;61.95;46.80;75.03;;
72466;Laerm;60471;52.150;4.508;2023-05-10T05:33:31;59.05;45.82;74.10;;
72466;Laerm;60471;52.150;4.508;2023-05-10T05:36:01;63.92;48.50;85.68;;
72466;Laerm;60471;52.150;4.508;2023-05-10T05:38:27;62.49;48.94;82.06;;
72466;Laerm;60471;52.150;4.508;2023-05-10T05:40:54;61.88;47.96;76.49;;
72466;Laerm;60471;52.150;4.508;2023-05-10T05:43:20;62.03;50.40;75.60;;
72466;Laerm;60471;52.150;4.508;2023-05-10T05:45:46;63.72;47.93;83.64;;
72466;Laerm;60471;52.150;4.508;2023-05-10T05:48:12;61.90;49.60;74.47;;
72466;Laerm;60471;52.150;4.508;2023-05-10T05:50:39;61.16;50.68;73.63;;
72466;Laerm;60471;52.150;4.508;2023-05-10T05:53:05;60.79;49.82;73.49;;
72466;Laerm;60471;52.150;4.508;2023-05-10T05:55:31;61.81;50.19;73.63;;
72466;Laerm;60471;52.150;4.508;2023-05-10T05:57:58;64.64;50.26;84.86;;
72466;Laerm;60471;52.150;4.508;2023-05-10T06:00:24;63.34;49.95;83.64;;
72466;Laerm;60471;52.150;4.508;2023-05-10T06:02:50;63.83;49.30;85.43;;
72466;Laerm;60471;52.150;4.508;2023-05-10T06:05:16;61.56;50.92;75.11;;
72466;Laerm;60471;52.150;4.508;2023-05-10T06:07:43;61.47;50.03;74.41;;
72466;Laerm;60471;52.150;4.508;2023-05-10T06:10:09;60.70;48.90;75.52;;
72466;Laerm;60471;52.150;4.508;2023-05-10T06:12:36;60.88;48.62;74.71;;
72466;Laerm;60471;52.150;4.508;2023-05-10T06:15:03;61.44;49.30;72.81;;
72466;Laerm;60471;52.150;4.508;2023-05-10T06:17:29;60.81;51.42;72.08;;
72466;Laerm;60471;52.150;4.508;2023-05-10T06:19:56;61.85;50.98;75.29;;
72466;Laerm;60471;52.150;4.508;2023-05-10T06:22:22;60.02;48.89;79.12;;
72466;Laerm;60471;52.150;4.508;2023-05-10T06:24:49;59.37;48.16;68.71;;
72466;Laerm;60471;52.150;4.508;2023-05-10T06:27:15;61.54;50.26;72.75;;
72466;Laerm;60471;52.150;4.508;2023-05-10T06:29:41;60.77;48.64;71.85;;
72466;Laerm;60471;52.150;4.508;2023-05-10T06:32:08;61.09;50.76;80.17;;
72466;Laerm;60471;52.150;4.508;2023-05-10T06:34:34;60.27;50.05;69.82;;
72466;Laerm;60471;52.150;4.508;2023-05-10T06:37:00;60.51;48.73;69.75;;
72466;Laerm;60471;52.150;4.508;2023-05-10T06:39:26;60.82;47.45;71.81;;
72466;Laerm;60471;52.150;4.508;2023-05-10T06:41:52;60.46;47.67;72.00;;
72466;Laerm;60471;52.150;4.508;2023-05-10T06:44:19;60.15;49.14;72.99;;
72466;Laerm;60471;52.150;4.508;2023-05-10T06:46:45;59.78;49.09;70.31;;
72466;Laerm;60471;52.150;4.508;2023-05-10T06:49:11;60.20;49.17;71.93;;
72466;Laerm;60471;52.150;4.508;2023-05-10T06:51:37;59.09;49.80;68.65;;
72466;Laerm;60471;52.150;4.508;2023-05-10T06:54:03;59.94;47.91;73.45;;
72466;Laerm;60471;52.150;4.508;2023-05-10T06:56:30;60.02;48.73;70.02;;
72466;Laerm;60471;52.150;4.508;2023-05-10T06:58:56;59.90;48.17;68.33;;
72466;Laerm;60471;52.150;4.508;2023-05-10T07:01:22;60.09;50.41;69.74;;
72466;Laerm;60471;52.150;4.508;2023-05-10T07:03:48;59.33;47.67;72.02;;
72466;Laerm;60471;52.150;4.508;2023-05-10T07:06:14;59.70;47.36;76.11;;
72466;Laerm;60471;52.150;4.508;2023-05-10T07:08:41;59.19;48.07;68.85;;
72466;Laerm;60471;52.150;4.508;2023-05-10T07:11:07;58.61;48.77;68.54;;
72466;Laerm;60471;52.150;4.508;2023-05-10T07:13:34;60.10;48.54;85.35;;
72466;Laerm;60471;52.150;4.508;2023-05-10T07:16:00;58.47;48.47;67.67;;
72466;Laerm;60471;52.150;4.508;2023-05-10T07:18:28;59.34;48.32;71.15;;
72466;Laerm;60471;52.150;4.508;2023-05-10T07:20:54;58.44;48.06;69.43;;
72466;Laerm;60471;52.150;4.508;2023-05-10T07:23:24;60.26;47.66;71.51;;
72466;Laerm;60471;52.150;4.508;2023-05-10T07:25:51;58.75;47.11;68.54;;
72466;Laerm;60471;52.150;4.508;2023-05-10T07:28:18;58.37;45.82;69.06;;
72466;Laerm;60471;52.150;4.508;2023-05-10T07:30:44;58.90;48.85;69.10;;
72466;Laerm;60471;52.150;4.508;2023-05-10T07:33:13;59.80;48.36;71.37;;
72466;Laerm;60471;52.150;4.508;2023-05-10T07:35:40;58.42;48.61;68.87;;
72466;Laerm;60471;52.150;4.508;2023-05-10T07:38:06;58.95;48.42;67.37;;
72466;Laerm;60471;52.150;4.508;2023-05-10T07:40:33;58.86;50.23;67.03;;
72466;Laerm;60471;52.150;4.508;2023-05-10T07:42:59;57.25;46.44;67.50;;
72466;Laerm;60471;52.150;4.508;2023-05-10T07:45:28;59.13;49.63;75.98;;
72466;Laerm;60471;52.150;4.508;2023-05-10T07:47:54;59.93;50.31;67.75;;
72466;Laerm;60471;52.150;4.508;2023-05-10T07:50:21;59.20;50.12;68.79;;
72466;Laerm;60471;52.150;4.508;2023-05-10T07:52:47;59.37;49.27;68.40;;
72466;Laerm;60471;52.150;4.508;2023-05-10T07:55:14;58.37;48.07;68.13;;
72466;Laerm;60471;52.150;4.508;2023-05-10T07:57:41;58.85;48.33;68.70;;
72466;Laerm;60471;52.150;4.508;2023-05-10T08:00:08;58.32;48.55;67.93;;
72466;Laerm;60471;52.150;4.508;2023-05-10T08:02:35;57.97;47.87;69.15;;
72466;Laerm;60471;52.150;4.508;2023-05-10T08:05:02;58.07;48.03;68.64;;
72466;Laerm;60471;52.150;4.508;2023-05-10T08:07:28;58.82;50.10;66.39;;
72466;Laerm;60471;52.150;4.508;2023-05-10T08:09:54;57.63;48.69;65.81;;
72466;Laerm;60471;52.150;4.508;2023-05-10T08:12:20;56.89;47.73;67.26;;
72466;Laerm;60471;52.150;4.508;2023-05-10T08:14:47;57.75;48.09;67.58;;
72466;Laerm;60471;52.150;4.508;2023-05-10T08:17:13;59.44;48.60;67.06;;
72466;Laerm;60471;52.150;4.508;2023-05-10T08:19:39;59.14;48.19;67.73;;
72466;Laerm;60471;52.150;4.508;2023-05-10T08:22:06;57.89;47.75;67.28;;
72466;Laerm;60471;52.150;4.508;2023-05-10T08:24:32;57.76;48.16;66.31;;
72466;Laerm;60471;52.150;4.508;2023-05-10T08:26:58;58.37;49.82;67.50;;
72466;Laerm;60471;52.150;4.508;2023-05-10T08:29:24;59.48;49.24;67.24;;
72466;Laerm;60471;52.150;4.508;2023-05-10T08:31:50;57.76;48.46;66.93;;
72466;Laerm;60471;52.150;4.508;2023-05-10T08:34:17;58.82;49.62;68.10;;
72466;Laerm;60471;52.150;4.508;2023-05-10T08:36:43;57.80;47.09;67.14;;
72466;Laerm;60471;52.150;4.508;2023-05-10T08:39:09;58.92;48.29;67.68;;
72466;Laerm;60471;52.150;4.508;2023-05-10T08:41:39;59.43;49.11;68.18;;
72466;Laerm;60471;52.150;4.508;2023-05-10T08:44:07;59.40;49.67;67.59;;
72466;Laerm;60471;52.150;4.508;2023-05-10T08:46:36;58.21;47.65;72.71;;
72466;Laerm;60471;52.150;4.508;2023-05-10T08:49:07;59.19;49.94;69.56;;
72466;Laerm;60471;52.150;4.508;2023-05-10T08:51:44;58.29;47.94;67.38;;
72466;Laerm;60471;52.150;4.508;2023-05-10T08:54:13;57.40;48.67;67.48;;
72466;Laerm;60471;52.150;4.508;2023-05-10T08:56:39;56.75;46.15;67.40;;
72466;Laerm;60471;52.150;4.508;2023-05-10T08:59:06;57.55;46.74;67.04;;
72466;Laerm;60471;52.150;4.508;2023-05-10T09:01:34;58.68;48.84;67.40;;
72466;Laerm;60471;52.150;4.508;2023-05-10T09:04:02;58.41;48.82;67.18;;
72466;Laerm;60471;52.150;4.508;2023-05-10T09:06:30;58.69;48.00;68.12;;
72466;Laerm;60471;52.150;4.508;2023-05-10T09:08:56;59.12;49.09;67.52;;
72466;Laerm;60471;52.150;4.508;2023-05-10T09:11:23;58.86;47.77;67.80;;
72466;Laerm;60471;52.150;4.508;2023-05-10T09:13:52;58.56;47.52;67.04;;
72466;Laerm;60471;52.150;4.508;2023-05-10T09:16:18;58.09;47.68;67.20;;
72466;Laerm;60471;52.150;4.508;2023-05-10T09:39:40;58.81;48.00;79.73;;
72466;Laerm;60471;52.150;4.508;2023-05-10T09:42:09;58.62;48.53;65.60;;
72466;Laerm;60471;52.150;4.508;2023-05-10T09:44:36;57.19;46.39;64.83;;
72466;Laerm;60471;52.150;4.508;2023-05-10T09:47:04;59.45;47.42;69.41;;
72466;Laerm;60471;52.150;4.508;2023-05-10T09:49:31;58.81;48.25;65.99;;
72466;Laerm;60471;52.150;4.508;2023-05-10T09:52:06;58.44;48.40;66.21;;
72466;Laerm;60471;52.150;4.508;2023-05-10T09:54:34;57.87;47.38;67.42;;
72466;Laerm;60471;52.150;4.508;2023-05-10T09:57:01;57.46;45.26;66.63;;
72466;Laerm;60471;52.150;4.508;2023-05-10T09:59:29;55.51;44.60;65.81;;
72466;Laerm;60471;52.150;4.508;2023-05-10T10:01:58;58.35;45.35;65.79;;
72466;Laerm;60471;52.150;4.508;2023-05-10T10:04:25;58.12;46.92;69.62;;
72466;Laerm;60471;52.150;4.508;2023-05-10T10:07:04;58.93;49.16;73.13;;
72466;Laerm;60471;52.150;4.508;2023-05-10T10:09:33;59.53;50.07;66.30;;
72466;Laerm;60471;52.150;4.508;2023-05-10T10:12:01;59.68;46.60;75.18;;
72466;Laerm;60471;52.150;4.508;2023-05-10T10:14:29;59.57;47.82;68.23;;
72466;Laerm;60471;52.150;4.508;2023-05-10T10:16:56;59.96;48.87;77.99;;
72466;Laerm;60471;52.150;4.508;2023-05-10T10:19:22;58.91;47.67;71.03;;
72466;Laerm;60471;52.150;4.508;2023-05-10T10:21:50;58.72;49.35;75.02;;
72466;Laerm;60471;52.150;4.508;2023-05-10T10:24:16;61.33;48.66;85.96;;
72466;Laerm;60471;52.150;4.508;2023-05-10T10:26:44;60.26;47.76;72.09;;
72466;Laerm;60471;52.150;4.508;2023-05-10T10:29:25;59.58;47.05;75.21;;
72466;Laerm;60471;52.150;4.508;2023-05-10T10:32:02;59.17;46.46;72.58;;
72466;Laerm;60471;52.150;4.508;2023-05-10T10:34:32;57.60;46.28;69.86;;
72466;Laerm;60471;52.150;4.508;2023-05-10T10:37:04;59.80;49.06;68.81;;
72466;Laerm;60471;52.150;4.508;2023-05-10T10:39:31;59.61;48.87;68.49;;
72466;Laerm;60471;52.150;4.508;2023-05-10T10:41:58;60.32;50.82;69.38;;
72466;Laerm;60471;52.150;4.508;2023-05-10T10:50:05;59.96;49.39;69.58;;
72466;Laerm;60471;52.150;4.508;2023-05-10T10:52:40;59.95;48.59;69.59;;
72466;Laerm;60471;52.150;4.508;2023-05-10T10:55:08;59.98;47.57;70.12;;
72466;Laerm;60471;52.150;4.508;2023-05-10T11:00:33;59.54;47.83;70.03;;
72466;Laerm;60471;52.150;4.508;2023-05-10T11:03:12;59.79;48.13;70.94;;
72466;Laerm;60471;52.150;4.508;2023-05-10T11:05:49;59.70;47.53;70.12;;
72466;Laerm;60471;52.150;4.508;2023-05-10T11:08:26;59.26;47.05;70.34;;
72466;Laerm;60471;52.150;4.508;2023-05-10T11:13:28;58.41;49.91;67.02;;
72466;Laerm;60471;52.150;4.508;2023-05-10T11:15:56;66.18;49.05;87.36;;
72466;Laerm;60471;52.150;4.508;2023-05-10T11:18:27;59.76;46.78;70.19;;
72466;Laerm;60471;52.150;4.508;2023-05-10T11:21:02;65.69;48.01;87.89;;
72466;Laerm;60471;52.150;4.508;2023-05-10T11:26:09;59.92;47.76;70.76;;
72466;Laerm;60471;52.150;4.508;2023-05-10T11:28:42;60.74;48.22;70.48;;
72466;Laerm;60471;52.150;4.508;2023-05-10T11:31:09;59.97;47.03;70.61;;
72466;Laerm;60471;52.150;4.508;2023-05-10T11:36:21;59.69;46.64;70.03;;
72466;Laerm;60471;52.150;4.508;2023-05-10T11:38:48;59.97;45.82;69.59;;
72466;Laerm;60471;52.150;4.508;2023-05-10T11:41:18;59.42;47.88;70.94;;
72466;Laerm;60471;52.150;4.508;2023-05-10T11:43:48;59.75;47.82;70.11;;
72466;Laerm;60471;52.150;4.508;2023-05-10T11:46:18;61.48;47.55;73.06;;
72466;Laerm;60471;52.150;4.508;2023-05-10T11:48:49;60.34;48.41;69.86;;
72466;Laerm;60471;52.150;4.508;2023-05-10T11:51:23;59.96;49.17;68.79;;
72466;Laerm;60471;52.150;4.508;2023-05-10T11:53:54;60.75;48.77;79.11;;
72466;Laerm;60471;52.150;4.508;2023-05-10T11:56:21;59.13;48.23;77.23;;
72466;Laerm;60471;52.150;4.508;2023-05-10T11:58:57;60.30;48.93;77.50;;
72466;Laerm;60471;52.150;4.508;2023-05-10T12:01:25;59.38;47.39;68.60;;
72466;Laerm;60471;52.150;4.508;2023-05-10T12:03:54;59.16;47.44;68.75;;
72466;Laerm;60471;52.150;4.508;2023-05-10T12:06:21;59.95;49.26;69.14;;
72466;Laerm;60471;52.150;4.508;2023-05-10T12:08:49;59.07;46.52;68.44;;
72466;Laerm;60471;52.150;4.508;2023-05-10T12:11:25;58.74;48.16;69.41;;
72466;Laerm;60471;52.150;4.508;2023-05-10T12:13:52;59.87;49.06;69.44;;
72466;Laerm;60471;52.150;4.508;2023-05-10T12:16:22;58.93;47.48;68.79;;
72466;Laerm;60471;52.150;4.508;2023-05-10T12:18:50;59.54;48.90;68.57;;
72466;Laerm;60471;52.150;4.508;2023-05-10T12:21:19;58.81;49.19;67.86;;
72466;Laerm;60471;52.150;4.508;2023-05-10T12:23:52;59.77;49.22;69.26;;
72466;Laerm;60471;52.150;4.508;2023-05-10T12:26:22;58.77;47.74;69.09;;
72466;Laerm;60471;52.150;4.508;2023-05-10T12:28:49;60.00;50.75;68.43;;
72466;Laerm;60471;52.150;4.508;2023-05-10T12:31:15;59.43;49.01;69.00;;
72466;Laerm;60471;52.150;4.508;2023-05-10T12:33:43;59.03;46.48;68.93;;
72466;Laerm;60471;52.150;4.508;2023-05-10T12:36:12;59.80;49.32;68.40;;
72466;Laerm;60471;52.150;4.508;2023-05-10T12:38:41;59.72;48.60;68.18;;
72466;Laerm;60471;52.150;4.508;2023-05-10T12:41:16;59.17;46.72;69.38;;
72466;Laerm;60471;52.150;4.508;2023-05-10T12:43:44;59.74;48.49;67.81;;
72466;Laerm;60471;52.150;4.508;2023-05-10T12:46:17;59.28;47.75;68.39;;
72466;Laerm;60471;52.150;4.508;2023-05-10T12:48:44;59.47;47.93;68.72;;
72466;Laerm;60471;52.150;4.508;2023-05-10T12:51:20;58.91;46.78;70.05;;
72466;Laerm;60471;52.150;4.508;2023-05-10T12:53:48;58.87;47.46;67.16;;
72466;Laerm;60471;52.150;4.508;2023-05-10T12:56:14;59.16;47.13;67.79;;
72466;Laerm;60471;52.150;4.508;2023-05-10T12:58:40;58.93;50.08;68.13;;
72466;Laerm;60471;52.150;4.508;2023-05-10T13:01:07;61.64;50.01;69.01;;
72466;Laerm;60471;52.150;4.508;2023-05-10T13:03:33;60.65;50.77;68.36;;
72466;Laerm;60471;52.150;4.508;2023-05-10T13:05:59;59.61;49.75;69.39;;
72466;Laerm;60471;52.150;4.508;2023-05-10T13:08:25;71.80;48.81;89.31;;
72466;Laerm;60471;52.150;4.508;2023-05-10T13:10:52;59.02;49.51;68.04;;
72466;Laerm;60471;52.150;4.508;2023-05-10T13:13:18;58.49;47.83;66.53;;
72466;Laerm;60471;52.150;4.508;2023-05-10T13:15:44;59.52;50.23;70.98;;
72466;Laerm;60471;52.150;4.508;2023-05-10T13:18:10;58.90;49.09;67.83;;
72466;Laerm;60471;52.150;4.508;2023-05-10T13:20:37;59.99;50.84;69.19;;
72466;Laerm;60471;52.150;4.508;2023-05-10T13:23:03;60.45;50.58;68.61;;
72466;Laerm;60471;52.150;4.508;2023-05-10T13:25:29;58.78;46.76;68.06;;
72466;Laerm;60471;52.150;4.508;2023-05-10T13:27:55;60.30;48.59;80.36;;
72466;Laerm;60471;52.150;4.508;2023-05-10T13:30:22;59.92;49.00;68.98;;
72466;Laerm;60471;52.150;4.508;2023-05-10T13:32:49;59.17;49.03;67.49;;
72466;Laerm;60471;52.150;4.508;2023-05-10T13:35:16;58.39;47.32;67.39;;
72466;Laerm;60471;52.150;4.508;2023-05-10T13:37:42;59.60;47.50;67.97;;
72466;Laerm;60471;52.150;4.508;2023-05-10T13:40:08;59.19;49.34;68.11;;
72466;Laerm;60471;52.150;4.508;2023-05-10T13:42:34;60.24;48.94;69.92;;
72466;Laerm;60471;52.150;4.508;2023-05-10T13:45:01;59.21;47.35;69.74;;
72466;Laerm;60471;52.150;4.508;2023-05-10T13:47:27;58.46;48.12;68.48;;
72466;Laerm;60471;52.150;4.508;2023-05-10T13:49:54;59.91;51.30;68.07;;
72466;Laerm;60471;52.150;4.508;2023-05-10T13:52:20;59.43;46.14;67.69;;
72466;Laerm;60471;52.150;4.508;2023-05-10T13:54:46;58.63;46.25;66.50;;
72466;Laerm;60471;52.150;4.508;2023-05-10T13:57:12;59.39;47.34;68.12;;
72466;Laerm;60471;52.150;4.508;2023-05-10T13:59:39;57.98;44.94;68.97;;
72466;Laerm;60471;52.150;4.508;2023-05-10T14:02:06;59.53;49.21;68.07;;
72466;Laerm;60471;52.150;4.508;2023-05-10T14:04:32;58.52;44.98;67.74;;
72466;Laerm;60471;52.150;4.508;2023-05-10T14:07:00;58.90;47.46;68.24;;
72466;Laerm;60471;52.150;4.508;2023-05-10T14:09:26;59.41;47.30;68.63;;
72466;Laerm;60471;52.150;4.508;2023-05-10T14:11:52;58.94;48.02;67.30;;
72466;Laerm;60471;52.150;4.508;2023-05-10T14:14:18;59.28;45.46;66.99;;
72466;Laerm;60471;52.150;4.508;2023-05-10T14:16:45;60.13;47.77;68.36;;
72466;Laerm;60471;52.150;4.508;2023-05-10T14:19:11;59.43;47.83;68.93;;
72466;Laerm;60471;52.150;4.508;2023-05-10T14:21:37;59.59;47.92;67.46;;
72466;Laerm;60471;52.150;4.508;2023-05-10T14:24:04;59.72;49.12;69.43;;
72466;Laerm;60471;52.150;4.508;2023-05-10T14:26:30;59.20;48.11;68.21;;
72466;Laerm;60471;52.150;4.508;2023-05-10T14:28:57;58.34;48.53;67.52;;
72466;Laerm;60471;52.150;4.508;2023-05-10T14:31:23;59.87;48.96;69.14;;
72466;Laerm;60471;52.150;4.508;2023-05-10T14:33:51;59.53;49.70;69.43;;
72466;Laerm;60471;52.150;4.508;2023-05-10T14:36:17;59.63;46.76;68.81;;
72466;Laerm;60471;52.150;4.508;2023-05-10T14:38:44;59.64;46.52;68.81;;
72466;Laerm;60471;52.150;4.508;2023-05-10T14:41:10;58.57;45.86;67.95;;
72466;Laerm;60471;52.150;4.508;2023-05-10T14:43:40;59.06;47.23;67.77;;